• Join FlightAware (Why Join?)
  • Login
  • US Flag 
02:05PM EDT


 

Airport Tracker/Info


-or-


 

Live Flight TrackerFlight Track Log ✈ BAW89 ✈ 07-Jul-2014 ✈ EGLL / LHR - ZUUU / CTU

Flight Track Log - Related Links

Times and Time Zones

All times are in EDT time to prevent confusion due to time zone crossing. See the BAW89 flight status page for this flight to view local times or setup timezone preferences in your user account.

Time Position Orientation Groundspeed Altitude Reporting Facility
EDT Latitude Longitude Course Direction KTS MPH feet Rate Location/Type
01:20PM 51.4649 -0.4796 271° West 176 203 400  Level FlightAware ADS-B (EGLL / LHR)
01:20PM 51.4651 -0.5015 272° West 179 206 900 2,100 Climbing FlightAware ADS-B (EGLL / LHR)
01:20PM 51.4667 -0.5182 292° West 181 208 1,400 1,680 Climbing FlightAware ADS-B (EGLW)
01:21PM 51.4731 -0.5377 299° West 205 236 1,800 840 Climbing FlightAware ADS-B (EGLW)
01:21PM 51.4831 -0.5672 298° West 227 261 1,900 1,140 Climbing FlightAware ADS-B (EGTR / ETR)
01:21PM 51.4905 -0.5902 298° West 238 274 2,400 1,800 Climbing FlightAware ADS-B (EGLF / FAB)
01:21PM 51.5001 -0.6194 298° West 253 291 2,900 2,280 Climbing FlightAware ADS-B (EGLL / LHR)
01:22PM 51.5078 -0.6429 301° West 258 297 3,700 2,400 Climbing FlightAware ADS-B (EGLF / FAB)
01:22PM 51.5114 -0.6519 311° West 260 299 3,800 1,980 Climbing FlightAware ADS-B (EGLF / FAB)
01:22PM 51.5188 -0.6635 323° Northwest 263 303 4,100 3,000 Climbing FlightAware ADS-B
01:22PM 51.5278 -0.6714 337° Northwest 266 306 4,500 2,520 Climbing FlightAware ADS-B (EGLF / FAB)
01:22PM 51.5344 -0.6744 348° North 269 310 4,700 2,100 Climbing FlightAware ADS-B (EGLL / LHR)
01:22PM 51.5454 -0.6755 North 272 313 5,000 2,700 Climbing FlightAware ADS-B (EGWE)
01:22PM 51.5444 -0.6757 10° North 274 315 5,200 2,400 Climbing FlightAware ADS-B (EGLW)
01:22PM 51.5560 -0.6722 15° North 276 318 5,400 1,740 Climbing FlightAware ADS-B (EGLF / FAB)
01:23PM 51.5678 -0.6628 34° Northeast 279 321 5,700 2,100 Climbing FlightAware ADS-B (EGLL / LHR)
01:23PM 51.5897 -0.6353 39° Northeast 277 319 6,500 2,280 Climbing FlightAware ADS-B (EGWU / NHT)
01:23PM 51.6057 -0.6153 38° Northeast 286 329 7,100 2,400 Climbing FlightAware ADS-B (EGLC / LCY)
01:23PM 51.6204 -0.5970 38° Northeast 288 331 7,700 2,400 Climbing FlightAware ADS-B (EGLC / LCY)
01:24PM 51.6367 -0.5766 38° Northeast 292 336 8,300 2,400 Climbing FlightAware ADS-B (EGLW)
01:24PM 51.6446 -0.5668 39° Northeast 287 330 8,600 2,400 Climbing FlightAware ADS-B (EGUO)
01:24PM 51.6532 -0.5561 39° Northeast 289 333 8,900 2,160 Climbing FlightAware ADS-B (EGWU / NHT)
01:24PM 51.6648 -0.5414 39° Northeast 290 334 9,300 2,100 Climbing FlightAware ADS-B (EGUO)
01:24PM 51.6747 -0.5287 40° Northeast 292 336 9,600 2,100 Climbing FlightAware ADS-B (EGWU / NHT)
01:25PM 51.6951 -0.5023 40° Northeast 296 341 10,300 1,680 Climbing FlightAware ADS-B (EGWU / NHT)
01:25PM 51.7129 -0.4788 47° Northeast 321 369 10,700 1,080 Climbing FlightAware ADS-B (EGLW)
01:25PM 51.7175 -0.4714 48° Northeast 321 369 10,700 600 Level FlightAware ADS-B (EGLF / FAB)
01:25PM 51.7247 -0.4560 58° Northeast 329 379 10,800 900 Climbing FlightAware ADS-B (EGLC / LCY)
01:25PM 51.7348 -0.4282 62° Northeast 338 389 11,000 240 Climbing FlightAware ADS-B (EGLL / LHR)
01:26PM 51.7565 -0.3624 62° Northeast 346 398 11,000  Level FlightAware ADS-B (EGLF / FAB)
01:26PM 51.7664 -0.3328 63° Northeast 345 397 11,000  Level FlightAware ADS-B (EGLW)
01:26PM 51.7792 -0.2846 71° East 342 394 11,000  Level FlightAware ADS-B (EGUO)
01:27PM 51.7862 -0.2520 72° East 346 398 11,000  Level FlightAware ADS-B (EGLF / FAB)
01:27PM 51.7892 -0.2373 73° East 343 395 11,000  Level FlightAware ADS-B (EGUO)
01:27PM 51.7937 -0.2153 73° East 344 396 11,000  Level FlightAware ADS-B (EGUO)
01:27PM 51.8010 -0.1789 73° East 345 397 11,000  Level FlightAware ADS-B (EGLC / LCY)
01:27PM 51.8080 -0.1342 77° East 348 400 11,000  Level FlightAware ADS-B (EGLF / FAB)
01:28PM 51.8149 -0.0610 82° East 349 402 11,000 900 Level FlightAware ADS-B (EGLW)
01:28PM 51.8220 0.0201 82° East 353 406 11,900 1,800 Climbing FlightAware ADS-B (EGUO)
01:29PM 51.8291 0.1038 82° East 364 419 12,900 2,040 Climbing FlightAware ADS-B (EGUO)
01:29PM 51.8386 0.1895 78° East 370 426 14,100 2,160 Climbing FlightAware ADS-B (EGWE)
01:30PM 51.8366 0.1739 80° East 368 423 14,300 2,160 Climbing FlightAware ADS-B (EGLL / LHR)
01:30PM 51.8501 0.2773 78° East 374 430 15,400 2,340 Climbing FlightAware ADS-B (EGSR)
01:30PM 51.8518 0.2916 79° East 375 432 15,600 1,680 Climbing FlightAware ADS-B (EGLC / LCY)
01:30PM 51.8563 0.3262 80° East 374 430 15,800 1,740 Climbing FlightAware ADS-B
01:31PM 51.8681 0.4170 78° East 381 438 16,900 2,040 Climbing FlightAware ADS-B (EGLC / LCY)
01:31PM 51.8742 0.4651 80° East 382 440 17,500 1,860 Climbing FlightAware ADS-B (EGUO)
01:32PM 51.8810 0.5182 78° East 391 450 18,400 1,800 Climbing FlightAware ADS-B (EGLW)
01:32PM 51.8960 0.6353 79° East 397 457 19,300 1,800 Climbing FlightAware ADS-B (EGUO)
01:33PM 51.9090 0.7388 79° East 403 464 20,400 1,680 Climbing FlightAware ADS-B (EGTR / ETR)
01:33PM 51.9215 0.8389 79° East 409 471 21,300 1,680 Climbing FlightAware ADS-B (EGLW)
01:33PM 51.9225 0.8467 78° East 411 473 21,500 2,160 Climbing FlightAware ADS-B (EGKA / ESH)
01:33PM 51.9262 0.8749 79° East 411 473 21,700 1,500 Climbing FlightAware ADS-B (EGNR / CEG)
01:34PM 51.9404 0.9697 76° East 417 480 22,500 1,500 Climbing FlightAware ADS-B (EGWU / NHT)
01:34PM 51.9483 1.0177 76° East 420 483 22,900 1,620 Climbing FlightAware ADS-B (EGMD / LYX)
01:35PM 51.9607 1.0951 76° East 427 491 23,800 900 Climbing FlightAware ADS-B (EGLF / FAB)
01:35PM 51.9711 1.1597 76° East 432 497 23,600 1,200 Descending FlightAware ADS-B (EGMD / LYX)
01:36PM 51.9842 1.2422 76° East 438 504 24,700 2,100 Climbing FlightAware ADS-B (EGLF / FAB)
01:36PM 51.9881 1.2664 76° East 441 507 25,000 2,280 Climbing FlightAware ADS-B (EGLW)
01:36PM 51.9950 1.3105 76° East 444 511 25,400 1,320 Climbing FlightAware ADS-B (EGLF / FAB)
01:36PM 52.0162 1.4447 76° East 448 516 26,100 900 Climbing FlightAware ADS-B (EGUO)
01:37PM 52.0176 1.4532 75° East 196 226 26,100 840 Level FlightAware ADS-B (EHGR / GLZ)
01:37PM 52.0197 1.4668 77° East 450 518 26,200 1,380 Climbing FlightAware ADS-B (EGUO)
01:37PM 52.0371 1.5783 76° East 454 522 27,000 1,320 Climbing FlightAware ADS-B (EHGR / GLZ)
01:38PM 52.0559 1.6995 76° East 459 528 27,800 1,320 Climbing FlightAware ADS-B (EGLF / FAB)
01:38PM 52.0657 1.7630 76° East 463 533 28,500 1,320 Climbing FlightAware ADS-B (EGXP / SQZ)
01:39PM 52.0873 1.9031 76° East 466 536 29,200 1,140 Climbing FlightAware ADS-B (EHRD / RTM)
01:39PM 52.1006 1.9907 75° East 470 541 29,700 1,080 Climbing FlightAware ADS-B (EGLW)
01:40PM 52.1115 2.0476 65° Northeast 483 556 30,300 1,080 Climbing FlightAware ADS-B (EGSR)
01:40PM 52.1675 2.2264 65° Northeast 492 566 30,900 960 Climbing FlightAware UK
01:40PM 52.1182 2.0756 59° Northeast 492 566 30,900 1,080 Level FlightAware ADS-B (EGLW)
01:41PM 52.1786 2.2576 60° Northeast 498 573 31,600 840 Climbing FlightAware ADS-B (EGXP / SQZ)
01:41PM 52.2158 2.3625 59° Northeast 498 573 31,500 660 Descending FlightAware UK
01:42PM 52.2465 2.4497 60° Northeast 504 580 32,000 780 Climbing FlightAware ADS-B (EHRD / RTM)
01:42PM 52.2904 2.5747 60° Northeast 509 586 32,400 600 Climbing FlightAware ADS-B (EGSR)
01:43PM 52.3269 2.6791 60° Northeast 514 592 32,800 600 Climbing FlightAware ADS-B (EHRD / RTM)
01:43PM 52.3771 2.8228 60° Northeast 520 598 33,200 600 Climbing FlightAware UK
01:43PM 52.3818 2.8370 61° Northeast 520 598 33,200 600 Level FlightAware ADS-B (EHGR / GLZ)
01:44PM 52.4165 2.9371 61° Northeast 525 604 33,600 660 Climbing FlightAware ADS-B (EHRD / RTM)
01:45PM 52.4480 3.0284 61° Northeast 528 608 33,900 660 Climbing FlightAware ADS-B (EHRD / RTM)
01:45PM 52.4925 3.1581 61° Northeast 530 610 34,300 900 Climbing FlightAware ADS-B (EHRD / RTM)
01:46PM 52.5288 3.2646 61° Northeast 529 609 34,800 1,800 Climbing FlightAware ADS-B (EHLE / LEY)
01:46PM 52.5674 3.3768 61° Northeast 500 575 36,200 2,220 Climbing FlightAware ADS-B (EHLE / LEY)
01:46PM 52.5928 3.4525 62° Northeast 488 562 36,900 660 Climbing FlightAware ADS-B (EHGR / GLZ)
01:47PM 52.6443 3.6051 61° Northeast 501 577 37,000 60 Climbing FlightAware ADS-B (EHRD / RTM)
01:48PM 52.6800 3.7143 62° Northeast 507 583 37,000  Level FlightAware ADS-B (EHRD / RTM)
01:48PM 52.7159 3.8278 63° Northeast 509 586 37,000  Level FlightAware ADS-B (EHLE / LEY)
01:49PM 52.7576 3.9595 63° Northeast 511 588 37,000  Level FlightAware ADS-B (EHGR / GLZ)
01:50PM 52.7982 4.0880 62° Northeast 519 597 37,000  Level FlightAware ADS-B (EHLE / LEY)
01:51PM 52.8644 4.2983 63° Northeast 518 596 37,000  Level FlightAware ADS-B (EHLE / LEY)
01:51PM 52.8812 4.3515 63° Northeast 517 595 37,000  Level FlightAware ADS-B (EHRD / RTM)
01:52PM 52.9300 4.5082 64° Northeast 511 588 37,000  Level FlightAware ADS-B (EHLE / LEY)
01:52PM 52.9627 4.6137 64° Northeast 510 587 37,000  Level FlightAware ADS-B (EHLE / LEY)
01:52PM 52.9729 4.6465 63° Northeast 512 589 37,000  Level FlightAware ADS-B (EHRD / RTM)
01:53PM 53.0108 4.7697 64° Northeast 506 582 37,000  Level FlightAware ADS-B (EHLE / LEY)
01:54PM 53.0641 4.9435 63° Northeast 506 582 37,000  Level FlightAware ADS-B (EHRD / RTM)
01:54PM 53.0967 5.0506 63° Northeast 505 581 37,000  Level FlightAware ADS-B (EHGR / GLZ)
01:55PM 53.1289 5.1568 63° Northeast 503 579 37,000  Level FlightAware ADS-B (EHGR / GLZ)
01:55PM 53.1548 5.2430 63° Northeast 501 577 37,000  Level FlightAware ADS-B (EHRD / RTM)
01:56PM 53.1994 5.3913 64° Northeast 495 570 37,000  Level FlightAware ADS-B (EHLE / LEY)
01:57PM 53.2457 5.5463 64° Northeast 496 571 37,000  Level FlightAware ADS-B (EHLE / LEY)
01:57PM 53.2761 5.6490 65° Northeast 497 572 37,000  Level FlightAware ADS-B (EHLE / LEY)
01:58PM 53.3365 5.8538 65° Northeast 497 572 37,000  Level FlightAware ADS-B (EHLE / LEY)
01:59PM 53.3674 5.9593 65° Northeast 499 574 37,000  Level FlightAware ADS-B (EHLE / LEY)
01:59PM 53.4133 6.1169 65° Northeast 492 566 37,000  Level FlightAware ADS-B (EHLE / LEY)
02:00PM 53.4433 6.2205 64° Northeast 492 566 37,000  Level FlightAware ADS-B (EHLE / LEY)
02:00PM 53.4926 6.3916 64° Northeast 492 566 37,000  Level FlightAware ADS-B (EDLW / DTM)
02:01PM 53.5075 6.4437 65° Northeast 492 566 37,000  Level FlightAware ADS-B (EDLW / DTM)
02:01PM 53.5169 6.4767 64° Northeast 491 565 37,000  Level FlightAware ADS-B (EHLE / LEY)
02:02PM 53.5484 6.5891 64° Northeast 492 566 37,000  Level FlightAware UK
02:02PM 53.5740 6.6773 65° Northeast 492 566 37,000  Level FlightAware ADS-B (EHLE / LEY)
02:03PM 53.6105 6.8061 65° Northeast 493 567 37,000  Level FlightAware ADS-B (EDDH / HAM)
02:03PM 53.6489 6.9433 65° Northeast 493 567 37,000  Level FlightAware ADS-B (EDDH / HAM)
02:04PM 53.7134 7.1741 65° Northeast 492 566 37,000  Level FlightAware ADS-B (EDLW / DTM)
02:05PM 53.7299 7.2338 65° Northeast 492 566 37,000  Level FlightAware ADS-B (EDDH / HAM)
02:05PM 53.7535 7.3192 65° Northeast 492 566 37,000  Level FlightAware ADS-B (EDDH / HAM)
02:06PM 53.7876 7.4435 65° Northeast 491 565 37,000  Level FlightAware ADS-B (EDDH / HAM)
02:07PM 53.8344 7.6149 66° East 490 564 37,000  Level FlightAware ADS-B (EHLE / LEY)
02:07PM 53.8634 7.7213 65° Northeast 494 568 37,000  Level FlightAware ADS-B (EHLE / LEY)
02:07PM 53.8877 7.8112 66° East 492 566 37,000  Level FlightAware ADS-B (EHLE / LEY)
02:08PM 53.9161 7.9167 66° East 492 566 37,000  Level FlightAware ADS-B (EHLE / LEY)
02:09PM 53.9449 8.0245 66° East 494 568 37,000  Level FlightAware ADS-B (EDDH / HAM)
02:09PM 53.9728 8.1287 66° East 493 567 37,000  Level FlightAware ADS-B (EDDH / HAM)
02:09PM 53.9785 8.1504 67° East 490 564 37,000  Level FlightAware ADS-B (EHLE / LEY)
02:10PM 54.0147 8.2866 66° East 491 565 37,000  Level FlightAware ADS-B (EDDH / HAM)
02:10PM 54.0437 8.3969 66° East 492 566 37,000  Level FlightAware ADS-B (EDDH / HAM)
02:11PM 54.0675 8.4878 66° East 492 566 37,000  Level FlightAware ADS-B (EDDH / HAM)
02:11PM 54.1002 8.6127 66° East 492 566 37,000  Level FlightAware ADS-B (EDDH / HAM)
02:12PM 54.1259 8.7119 66° East 494 568 37,000  Level FlightAware ADS-B (EDDH / HAM)
02:13PM 54.1723 8.8799 61° Northeast 496 571 37,000  Level FlightAware ADS-B (EDDH / HAM)
02:13PM 54.2075 8.9824 61° Northeast 496 571 37,000  Level FlightAware ADS-B (EDDH / HAM)
02:14PM 54.2523 9.1298 61° Northeast 494 568 37,000  Level FlightAware ADS-B (EDDH / HAM)
02:14PM 54.2868 9.2302 59° Northeast 497 572 37,000  Level FlightAware ADS-B (EDDH / HAM)
02:16PM 54.3761 9.4874 60° Northeast 492 566 37,000  Level FlightAware ADS-B (EDDH / HAM)
02:16PM 54.4246 9.6314 60° Northeast 491 565 37,000  Level FlightAware ADS-B (EDDH / HAM)
02:17PM 54.4573 9.7294 60° Northeast 494 568 37,000  Level FlightAware ADS-B (EDDH / HAM)
02:18PM 54.5131 9.8984 61° Northeast 495 570 37,000  Level FlightAware ADS-B (EDDH / HAM)
02:18PM 54.5629 10.0495 61° Northeast 495 570 37,000  Level FlightAware ADS-B (EDDH / HAM)
02:19PM 54.6114 10.1978 61° Northeast 496 571 37,000  Level FlightAware ADS-B (EDDH / HAM)
02:20PM 54.6840 10.4206 61° Northeast 496 571 37,000  Level FlightAware ADS-B (EDDH / HAM)
02:21PM 54.7352 10.5793 61° Northeast 491 565 37,000  Level FlightAware ADS-B (EDDH / HAM)
02:22PM 54.7870 10.7408 61° Northeast 491 565 37,000  Level FlightAware ADS-B (EDDH / HAM)
02:22PM 54.8200 10.8457 62° Northeast 493 567 37,000  Level FlightAware ADS-B (EDDH / HAM)
02:23PM 54.8617 10.9801 62° Northeast 494 568 37,000  Level FlightAware ADS-B (EDDH / HAM)
02:23PM 54.9012 11.1074 62° Northeast 494 568 37,000  Level FlightAware ADS-B (EDDH / HAM)
02:24PM 54.9643 11.3120 62° Northeast 495 570 37,000  Level FlightAware ADS-B (EDDH / HAM)
02:25PM 54.9928 11.4047 62° Northeast 496 571 37,000  Level FlightAware ADS-B (EDDH / HAM)
02:26PM 55.0468 11.5820 62° Northeast 496 571 37,000  Level FlightAware ADS-B (EDDH / HAM)
02:26PM 55.0927 11.7337 62° Northeast 497 572 37,000  Level FlightAware ADS-B (EDDH / HAM)
02:27PM 55.1270 11.8456 61° Northeast 500 575 37,000  Level FlightAware ADS-B (EDDH / HAM)
02:27PM 55.1540 11.9302 61° Northeast 501 577 37,000  Level FlightAware ADS-B (EDDH / HAM)
02:28PM 55.2029 12.0840 61° Northeast 499 574 37,000  Level FlightAware ADS-B (EDDH / HAM)
02:29PM 55.2775 12.3228 61° Northeast 500 575 37,000  Level FlightAware ADS-B (EDDH / HAM)
02:30PM 55.3125 12.4360 62° Northeast 502 578 37,000  Level FlightAware ADS-B (EDDH / HAM)
02:30PM 55.3456 12.5432 62° Northeast 503 579 37,000  Level FlightAware ADS-B (EFMA / MHQ)
02:31PM 55.3824 12.6636 63° Northeast 499 574 37,000  Level FlightAware ADS-B (EFMA / MHQ)
02:31PM 55.4149 12.7700 63° Northeast 499 574 37,000  Level FlightAware ADS-B (EFMA / MHQ)
02:32PM 55.4481 12.8803 63° Northeast 500 575 37,000  Level FlightAware ADS-B (EFMA / MHQ)
02:32PM 55.4768 12.9748 62° Northeast 505 581 37,000  Level FlightAware ADS-B (EDDH / HAM)
02:33PM 55.5252 13.1362 62° Northeast 506 582 37,000  Level FlightAware ADS-B (EDDH / HAM)
02:33PM 55.5381 13.1789 63° Northeast 502 578 37,000  Level FlightAware ADS-B (EFMA / MHQ)
02:34PM 55.5691 13.2822 62° Northeast 507 583 37,000  Level FlightAware ADS-B (EDDH / HAM)
02:35PM 55.5970 13.3759 63° Northeast 509 586 37,000  Level FlightAware ADS-B (EDDH / HAM)
02:37PM 55.7840 14.0150 63° Northeast 510 587 37,000  Level FlightAware ADS-B (EDDH / HAM)
02:38PM 55.8350 14.1922 63° Northeast 511 588 37,000  Level FlightAware ADS-B (EDDH / HAM)
02:52PM 56.6936 17.4041 66° East 508 585 37,000  Level FlightAware ADS-B (EYKS)
02:53PM 56.7469 17.6199 66° East 504 580 37,000  Level FlightAware ADS-B (EYKS)
02:57PM 56.9636 18.5184 67° East 501 577 37,000  Level FlightAware ADS-B (EYKS)
02:57PM 56.9906 18.6332 67° East 498 573 37,000  Level FlightAware ADS-B (EYKS)
02:58PM 57.0550 18.9090 67° East 494 568 37,000  Level FlightAware ADS-B (EYKS)
03:00PM 57.0740 18.9907 67° East 498 573 37,000  Level FlightAware ADS-B (EYKS)
03:02PM 57.2758 19.8829 68° East 496 571 37,000  Level FlightAware ADS-B (EYKS)
03:03PM 57.1575 19.6225 76° East  Level Estimated
03:03PM 57.3014 19.9987 68° East 497 572 37,000  Level FlightAware ADS-B (EYKS)
03:04PM 57.3683 20.3050 68° East 494 568 37,000  Level FlightAware ADS-B (EYKS)
03:05PM 57.3890 20.4004 68° East 492 566 37,000  Level FlightAware ADS-B (EYKS)
03:06PM 57.4415 20.6451 68° East 492 566 37,000  Level FlightAware ADS-B (EYKS)
03:06PM 57.4612 20.7378 69° East 489 563 37,000  Level FlightAware ADS-B (EVDA / DGP)
03:07PM 57.4882 20.8654 69° East 489 563 37,000  Level FlightAware ADS-B (EYKS)
03:07PM 57.5242 21.0362 69° East 486 559 37,000  Level FlightAware ADS-B (EYKS)
03:08PM 57.5492 21.1560 69° East 488 562 37,000  Level FlightAware ADS-B (EYKS)
03:09PM 57.5841 21.3245 69° East 486 559 37,000  Level FlightAware ADS-B (EYKS)
03:09PM 57.6097 21.4489 69° East 485 558 37,000  Level FlightAware ADS-B (EYKS)
03:10PM 57.6408 21.6009 69° East 486 559 37,000  Level FlightAware ADS-B (EYKS)
03:11PM 57.6727 21.7583 69° East 487 560 37,000  Level FlightAware ADS-B (EYKS)
03:11PM 57.6937 21.8633 69° East 485 558 37,000  Level FlightAware ADS-B (EYKS)
03:12PM 57.7272 22.0301 70° East 486 559 37,000  Level FlightAware ADS-B (EYKS)
03:12PM 57.7514 22.1517 70° East 485 558 37,000  Level FlightAware ADS-B (EYKS)
03:13PM 57.7814 22.3041 70° East 486 559 37,000  Level FlightAware ADS-B (EYKS)
03:13PM 57.8053 22.4262 70° East 487 560 37,000  Level FlightAware ADS-B (EYKS)
03:14PM 57.8283 22.5442 70° East 488 562 37,000  Level FlightAware ADS-B (EVDA / DGP)
03:14PM 57.8508 22.6612 70° East 490 564 37,000  Level FlightAware ADS-B (EYKS)
03:15PM 57.8822 22.8166 68° East 491 565 37,000  Level FlightAware ADS-B (EVDA / DGP)
03:16PM 57.9177 22.9721 67° East 491 565 37,000  Level FlightAware ADS-B (EYKS)
03:16PM 57.9541 23.1320 67° East 493 567 37,000  Level FlightAware ADS-B (EVDA / DGP)
03:17PM 57.9893 23.2872 67° East 495 570 37,000  Level FlightAware ADS-B (EYKS)
03:18PM 58.0298 23.4673 67° East 493 567 37,000  Level FlightAware ADS-B (EYKS)
03:18PM 58.0665 23.6314 67° East 493 567 37,000  Level FlightAware ADS-B (EVDA / DGP)
03:19PM 58.0945 23.7577 68° East 491 565 37,000  Level FlightAware ADS-B (EYKS)
03:20PM 58.1078 23.8185 68° East 491 565 37,000  Level FlightAware ADS-B (EYKS)
03:20PM 58.1655 24.0817 68° East 491 565 37,000  Level FlightAware ADS-B (EYKS)
03:21PM 58.1964 24.2244 68° East 489 563 37,000  Level FlightAware ADS-B (EYKS)
03:22PM 58.2265 24.3641 68° East 488 562 37,000  Level FlightAware ADS-B (EYKS)
03:22PM 58.2577 24.5104 68° East 489 563 37,000  Level FlightAware ADS-B (EYKS)
03:23PM 58.2804 24.6167 68° East 491 565 37,000  Level FlightAware ADS-B (EFHN)
03:23PM 58.3182 24.7962 68° East 489 563 37,000  Level FlightAware ADS-B (EFHN)
03:24PM 58.3376 24.8893 68° East 487 560 37,000  Level FlightAware ADS-B (EYKS)
03:24PM 58.3717 25.0529 68° East 487 560 37,000  Level FlightAware ADS-B (EFHN)
03:25PM 58.3994 25.1868 69° East 488 562 37,000  Level FlightAware ADS-B (EYKS)
03:26PM 58.4382 25.3760 69° East 489 563 37,000  Level FlightAware ADS-B (EVDA / DGP)
03:27PM 58.4874 25.6192 69° East 487 560 37,000  Level FlightAware ADS-B (EVDA / DGP)
03:27PM 58.4815 25.5896 69° East 487 560 37,000  Level FlightAware ADS-B (EFHN)
03:28PM 58.4874 25.6192 69° East 486 559 37,000  Level FlightAware ADS-B (EVDA / DGP)
03:29PM 58.6021 26.1949 69° East 486 559 37,000  Level FlightAware ADS-B (EVDA / DGP)
03:30PM 58.6125 26.2487 69° East 486 559 37,000  Level FlightAware ADS-B (EVDA / DGP)
03:31PM 58.6740 26.5659 70° East 484 557 37,000  Level FlightAware ADS-B (EVDA / DGP)
03:32PM 58.7150 26.7806 70° East 485 558 37,000  Level FlightAware ADS-B (EFHN)
03:33PM 58.7451 26.9397 70° East 489 563 37,000  Level FlightAware ADS-B (EFHN)
03:33PM 58.7875 27.1664 70° East 486 559 37,000  Level FlightAware ADS-B (EVDA / DGP)
03:34PM 58.8167 27.3233 70° East 489 563 37,000  Level FlightAware ADS-B (EVDA / DGP)
03:35PM 58.8641 27.6662 79° East 496 571 37,000  Level FlightAware ADS-B (EVDA / DGP)
03:36PM 58.8911 27.9288 79° East 493 567 37,000  Level FlightAware ADS-B (EVDA / DGP)
03:39PM 58.9195 28.4945 84° East  Level Estimated
03:40PM 58.9311 28.7407 85° East  Level Estimated
03:41PM 58.9422 28.9871 85° East  Level Estimated
03:42PM 58.9179 28.4617 84° East  Level Estimated
03:43PM 58.9296 28.7079 85° East  Level Estimated
03:44PM 58.9407 28.9543 85° East  Level Estimated
03:45PM 58.9514 29.2008 85° East  Level Estimated
03:46PM 58.9616 29.4475 85° East  Level Estimated
03:47PM 58.9714 29.6943 86° East  Level Estimated
03:48PM 58.9807 29.9413 86° East  Level Estimated
03:49PM 58.9895 30.1884 86° East  Level Estimated
03:50PM 58.9979 30.4356 86° East  Level Estimated
03:51PM 59.0057 30.6829 86° East  Level Estimated
03:52PM 59.0131 30.9304 87° East  Level Estimated
03:53PM 59.0201 31.1779 87° East  Level Estimated
03:54PM 59.0265 31.4256 87° East  Level Estimated
03:55PM 59.0325 31.6733 87° East  Level Estimated
03:56PM 59.0380 31.9211 87° East  Level Estimated
03:57PM 59.0431 32.1690 88° East  Level Estimated
03:58PM 59.0476 32.4170 88° East  Level Estimated
03:59PM 59.0518 32.6650 88° East  Level Estimated
04:00PM 59.0554 32.9131 88° East  Level Estimated
04:01PM 59.0585 33.1612 88° East  Level Estimated
04:02PM 59.0612 33.4094 89° East  Level Estimated
04:03PM 59.0634 33.6576 89° East  Level Estimated
04:04PM 59.0651 33.9058 89° East  Level Estimated
04:05PM 59.0664 34.1541 89° East  Level Estimated
04:06PM 59.0672 34.4023 90° East  Level Estimated
04:07PM 59.0675 34.6506 90° East  Level Estimated
04:08PM 59.0673 34.8989 90° East  Level Estimated
04:09PM 59.0666 35.1472 90° East  Level Estimated
04:10PM 59.0655 35.3954 90° East  Level Estimated
04:11PM 59.0639 35.6437 91° East  Level Estimated
04:12PM 59.0619 35.8919 91° East  Level Estimated
04:13PM 59.0593 36.1401 91° East  Level Estimated
04:14PM 59.0563 36.3882 91° East  Level Estimated
04:15PM 59.0528 36.6363 91° East  Level Estimated
04:16PM 59.0488 36.8843 92° East  Level Estimated
04:17PM 59.0444 37.1323 92° East  Level Estimated
04:18PM 59.0395 37.3802 92° East  Level Estimated
04:19PM 59.0341 37.6281 92° East  Level Estimated
04:20PM 59.0283 37.8758 93° East  Level Estimated
04:21PM 59.0219 38.1235 93° East  Level Estimated
04:22PM 59.0151 38.3711 93° East  Level Estimated
04:23PM 59.0079 38.6185 93° East  Level Estimated
04:24PM 59.0001 38.8659 93° East  Level Estimated
04:25PM 58.9919 39.1132 94° East  Level Estimated
04:26PM 58.9832 39.3603 94° East  Level Estimated
04:27PM 58.9740 39.6073 94° East  Level Estimated
04:28PM 58.9644 39.8542 94° East  Level Estimated
04:29PM 58.9543 40.1009 94° East  Level Estimated
04:30PM 58.9437 40.3475 95° East  Level Estimated
04:31PM 58.9327 40.5939 95° East  Level Estimated
04:32PM 58.9212 40.8401 95° East  Level Estimated
04:33PM 58.9092 41.0863 95° East  Level Estimated
04:34PM 58.8968 41.3322 95° East  Level Estimated
04:35PM 58.8839 41.5779 96° East  Level Estimated
04:36PM 58.8705 41.8235 96° East  Level Estimated
04:37PM 58.8567 42.0688 96° East  Level Estimated
04:38PM 58.8424 42.3140 96° East  Level Estimated
04:39PM 58.8276 42.5589 97° East  Level Estimated
04:40PM 58.8124 42.8037 97° East  Level Estimated
04:41PM 58.7967 43.0482 97° East  Level Estimated
04:42PM 58.7806 43.2925 97° East  Level Estimated
04:43PM 58.7639 43.5366 97° East  Level Estimated
04:44PM 58.7469 43.7804 98° East  Level Estimated
04:45PM 58.7293 44.0240 98° East  Level Estimated
04:46PM 58.7113 44.2674 98° East  Level Estimated
04:47PM 58.6929 44.5104 98° East  Level Estimated
04:48PM 58.6740 44.7533 98° East  Level Estimated
04:49PM 58.6546 44.9958 99° East  Level Estimated
04:50PM 58.6348 45.2381 99° East  Level Estimated
04:51PM 58.6145 45.4801 99° East  Level Estimated
04:52PM 58.5938 45.7219 99° East  Level Estimated
04:53PM 58.5726 45.9633 99° East  Level Estimated
04:54PM 58.5510 46.2045 100° East  Level Estimated
04:55PM 58.5289 46.4453 100° East  Level Estimated
04:56PM 58.5063 46.6858 100° East  Level Estimated
04:57PM 58.4834 46.9261 100° East  Level Estimated
04:58PM 58.4599 47.1660 100° East  Level Estimated
04:59PM 58.4360 47.4056 101° East  Level Estimated
05:00PM 58.4117 47.6448 101° East  Level Estimated
05:01PM 58.3869 47.8838 101° East  Level Estimated
05:02PM 58.3617 48.1223 101° East  Level Estimated
05:03PM 58.3361 48.3606 101° East  Level Estimated
05:04PM 58.3100 48.5985 102° East  Level Estimated
05:05PM 58.2834 48.8360 102° East  Level Estimated
05:06PM 58.2564 49.0732 102° East  Level Estimated
05:07PM 58.2292 49.3088 102° East  Level Estimated
05:08PM 58.2014 49.5440 103° East  Level Estimated
05:09PM 58.1733 49.7789 103° East  Level Estimated
05:10PM 58.1447 50.0134 103° East  Level Estimated
05:11PM 58.1157 50.2476 103° East  Level Estimated
05:12PM 58.0863 50.4813 103° East  Level Estimated
05:13PM 58.0564 50.7146 104° East  Level Estimated
05:14PM 58.0261 50.9476 104° East  Level Estimated
05:15PM 57.9954 51.1802 104° East  Level Estimated
05:16PM 57.9643 51.4123 104° East  Level Estimated
05:17PM 57.9327 51.6441 104° East  Level Estimated
05:18PM 57.9007 51.8754 104° East  Level Estimated
05:19PM 57.8684 52.1063 105° East  Level Estimated
05:20PM 57.8355 52.3369 105° East  Level Estimated
05:21PM 57.8023 52.5670 105° East  Level Estimated
05:22PM 57.7687 52.7966 105° East  Level Estimated
05:23PM 57.7346 53.0258 105° East  Level Estimated
05:24PM 57.7001 53.2547 106° East  Level Estimated
05:25PM 57.6652 53.4830 106° East  Level Estimated
05:26PM 57.6299 53.7109 106° East  Level Estimated
05:27PM 57.5942 53.9384 106° East  Level Estimated
05:28PM 57.5581 54.1654 106° East  Level Estimated
05:29PM 57.5216 54.3920 107° East  Level Estimated
05:30PM 57.4846 54.6181 107° East  Level Estimated
05:31PM 57.4473 54.8438 107° East  Level Estimated
05:32PM 57.4096 55.0690 107° East  Level Estimated
05:33PM 57.3714 55.2937 107° East  Level Estimated
05:33PM 57.7919 58.5360 103° East 529 609 39,000  Level FlightAware ADS-B (USTR / TJM)
05:33PM 57.7808 58.6268 102° East 529 609 39,000  Level FlightAware ADS-B (USTR / TJM)
05:34PM 57.7708 58.7077 103° East 529 609 39,000  Level FlightAware ADS-B (USTR / TJM)
05:34PM 57.7660 58.7468 103° East 528 608 39,000  Level FlightAware ADS-B (USTR / TJM)
05:34PM 57.7466 58.9018 103° East 526 605 39,000  Level FlightAware ADS-B (USTR / TJM)
05:34PM 57.7471 58.8974 103° East 527 606 39,000  Level FlightAware ADS-B (USTR / TJM)
05:35PM 57.7304 59.0302 103° East 527 606 39,000  Level FlightAware ADS-B (USTR / TJM)
05:35PM 57.7250 59.0735 103° East 528 608 39,000  Level FlightAware ADS-B (USTR / TJM)
05:35PM 57.7136 59.1638 103° East 528 608 39,000  Level FlightAware ADS-B (USTR / TJM)
05:36PM 57.7019 59.2558 103° East 527 606 39,000  Level FlightAware ADS-B (USTR / TJM)
05:36PM 57.6967 59.2964 103° East 527 606 39,000  Level FlightAware ADS-B (USTR / TJM)
05:36PM 57.6797 59.4290 103° East 528 608 39,000  Level FlightAware ADS-B (USTR / TJM)
05:36PM 57.6844 59.3927 104° East 529 609 39,000  Level FlightAware ADS-B (USTR / TJM)
05:37PM 57.6649 59.5442 103° East 530 610 39,000  Level FlightAware ADS-B (USTR / TJM)
05:37PM 57.6564 59.6098 104° East 531 611 39,000  Level FlightAware ADS-B (USTR / TJM)
05:37PM 57.6448 59.6985 103° East 530 610 39,000  Level FlightAware ADS-B (USTR / TJM)
05:38PM 57.6280 59.8261 103° East 531 611 39,000  Level FlightAware ADS-B (USTR / TJM)
05:38PM 57.6100 59.9618 103° East 531 611 39,000  Level FlightAware ADS-B (USTR / TJM)
05:39PM 57.5917 60.0983 104° East 531 611 39,000  Level FlightAware ADS-B (USTR / TJM)
05:39PM 57.5883 60.1231 104° East 532 612 39,000  Level FlightAware ADS-B (USTR / TJM)
05:39PM 57.5743 60.2266 104° East 531 611 39,000  Level FlightAware ADS-B (USTR / TJM)
05:40PM 57.5618 60.3185 104° East 530 610 39,000  Level FlightAware ADS-B (USTR / TJM)
05:40PM 57.5562 60.3589 104° East 529 609 39,000  Level FlightAware ADS-B (USTR / TJM)
05:40PM 57.5376 60.4942 104° East 528 608 39,000  Level FlightAware ADS-B (USTR / TJM)
05:41PM 57.5200 60.6206 104° East 529 609 39,000  Level FlightAware ADS-B (USTR / TJM)
05:41PM 57.5137 60.6663 104° East 530 610 39,000  Level FlightAware ADS-B (USTR / TJM)
05:41PM 57.5013 60.7580 104° East 529 609 39,000  Level FlightAware ADS-B (USTR / TJM)
05:42PM 57.4926 60.8223 104° East 530 610 39,000  Level FlightAware ADS-B (USTR / TJM)
05:42PM 57.4844 60.8830 104° East 529 609 39,000  Level FlightAware ADS-B (USTR / TJM)
05:42PM 57.4660 61.0183 104° East 529 609 39,000  Level FlightAware ADS-B (USTR / TJM)
05:42PM 57.4657 61.0210 104° East 529 609 39,000  Level FlightAware ADS-B (USTR / TJM)
05:43PM 57.4477 61.1516 104° East 528 608 39,000  Level FlightAware ADS-B (USTR / TJM)
05:43PM 57.4409 61.2007 105° East 529 609 39,000  Level FlightAware ADS-B (USTR / TJM)
05:43PM 57.4291 61.2847 104° East 528 608 39,000  Level FlightAware ADS-B (USTR / TJM)
05:44PM 57.4167 61.3729 105° East 528 608 39,000  Level FlightAware ADS-B (USTR / TJM)
05:44PM 57.4111 61.4122 104° East 528 608 39,000  Level FlightAware ADS-B (USTR / TJM)
05:44PM 57.3919 61.5475 104° East 528 608 39,000  Level FlightAware ADS-B (USTR / TJM)
05:45PM 57.3737 61.6747 104° East 527 606 39,000  Level FlightAware ADS-B (USTR / TJM)
05:45PM 57.3669 61.7216 105° East 528 608 39,000  Level FlightAware ADS-B (USTR / TJM)
05:45PM 57.3550 61.8042 105° East 527 606 39,000  Level FlightAware ADS-B (USTR / TJM)
05:46PM 57.3444 61.8854 101° East 526 605 39,000  Level FlightAware ADS-B (USTR / TJM)
05:46PM 57.3392 61.9392 99° East 525 604 39,000  Level FlightAware ADS-B (USTR / TJM)
05:46PM 57.3318 62.0730 93° East 526 605 39,000  Level FlightAware ADS-B (USTR / TJM)
05:47PM 57.3273 62.2056 93° East 526 605 39,000  Level FlightAware ADS-B (USTR / TJM)
05:47PM 57.3257 62.2477 94° East 526 605 39,000  Level FlightAware ADS-B (USTR / TJM)
05:47PM 57.3224 62.3389 93° East 526 605 39,000  Level FlightAware ADS-B (USTR / TJM)
05:48PM 57.3200 62.4051 94° East 527 606 39,000  Level FlightAware ADS-B (USTR / TJM)
05:48PM 57.3173 62.4759 94° East 527 606 39,000  Level FlightAware ADS-B (USTR / TJM)
05:48PM 57.3123 62.6061 94° East 528 608 39,000  Level FlightAware ADS-B (USTR / TJM)
05:48PM 57.3121 62.6107 94° East 528 608 39,000  Level FlightAware ADS-B (USTR / TJM)
05:49PM 57.3069 62.7460 94° East 527 606 39,000  Level FlightAware ADS-B (USTR / TJM)
05:49PM 57.3051 62.7890 94° East 528 608 39,000  Level FlightAware ADS-B (USTR / TJM)
05:49PM 57.3016 62.8751 94° East 528 608 39,000  Level FlightAware ADS-B (USTR / TJM)
05:50PM 57.2977 62.9712 94° East 529 609 39,000  Level FlightAware ADS-B (USTR / TJM)
05:50PM 57.2960 63.0106 94° East 528 608 39,000  Level FlightAware ADS-B (USTR / TJM)
05:50PM 57.2905 63.1454 94° East 529 609 39,000  Level FlightAware ADS-B (USTR / TJM)
05:50PM 57.2910 63.1319 94° East 529 609 39,000  Level FlightAware ADS-B (USTR / TJM)
05:51PM 57.2852 63.2822 94° East 530 610 39,000  Level FlightAware ADS-B (USTR / TJM)
05:51PM 57.2834 63.3245 94° East 530 610 39,000  Level FlightAware ADS-B (USTR / TJM)
05:51PM 57.2798 63.4135 94° East 530 610 39,000  Level FlightAware ADS-B (USTR / TJM)
05:52PM 57.2763 63.4973 94° East 531 611 39,000  Level FlightAware ADS-B (USTR / TJM)
05:52PM 57.2742 63.5477 94° East 530 610 39,000  Level FlightAware ADS-B (USTR / TJM)
05:52PM 57.2680 63.6902 94° East 531 611 39,000  Level FlightAware ADS-B (USTR / TJM)
05:52PM 57.2690 63.6676 95° East 532 612 39,000  Level FlightAware ADS-B (USTR / TJM)
05:53PM 57.2617 63.8245 95° East 531 611 39,000  Level FlightAware ADS-B (USTR / TJM)
05:53PM 57.2610 63.8380 96° East 531 611 39,000  Level FlightAware ADS-B (USTR / TJM)
05:53PM 57.2561 63.9243 96° East 532 612 39,000  Level FlightAware ADS-B (USTR / TJM)
05:54PM 57.2462 64.0881 96° East 533 613 39,000  Level FlightAware ADS-B (USTR / TJM)
05:54PM 57.2430 64.1413 96° East 533 613 39,000  Level FlightAware ADS-B (USTR / TJM)
05:54PM 57.2408 64.1773 96° East 533 613 39,000  Level FlightAware ADS-B (USTR / TJM)
05:55PM 57.2223 64.4825 96° East 534 615 39,000  Level FlightAware ADS-B (USTR / TJM)
05:56PM 57.2155 64.5925 97° East 535 616 39,000  Level FlightAware ADS-B (USTR / TJM)
05:56PM 57.2133 64.6286 96° East 534 615 39,000  Level FlightAware ADS-B (USTR / TJM)
05:56PM 57.2042 64.7729 96° East 534 615 39,000  Level FlightAware ADS-B (USTR / TJM)
05:57PM 57.1959 64.9037 96° East 534 615 39,000  Level FlightAware ADS-B (USTR / TJM)
05:57PM 57.1953 64.9127 97° East 535 616 39,000  Level FlightAware ADS-B (USTR / TJM)
05:57PM 57.1914 64.9723 96° East 535 616 39,000  Level FlightAware ADS-B (USTR / TJM)
05:58PM 57.1780 65.1766 97° East 537 618 39,000  Level FlightAware ADS-B (USTR / TJM)
05:58PM 57.1756 65.2118 97° East 536 617 39,000  Level FlightAware ADS-B (USTR / TJM)
05:58PM 57.1697 65.2994 97° East 536 617 39,000  Level FlightAware ADS-B (USTR / TJM)
05:59PM 57.1651 65.3671 96° East 535 616 39,000  Level FlightAware ADS-B (USTR / TJM)
05:59PM 57.1547 65.5335 96° East 537 618 39,000  Level FlightAware ADS-B (USTR / TJM)
06:00PM 57.1478 65.6423 96° East 537 618 39,000  Level FlightAware ADS-B (USTR / TJM)
06:00PM 57.1361 65.8217 96° East 537 618 39,000  Level FlightAware ADS-B (USTR / TJM)
06:01PM 57.1290 65.9286 97° East 538 619 39,000  Level FlightAware ADS-B (USTR / TJM)
06:01PM 57.1252 65.9838 97° East 538 619 39,000  Level FlightAware ADS-B (USTR / TJM)
06:01PM 57.1161 66.1169 97° East 539 620 39,000  Level FlightAware ADS-B (USTR / TJM)
06:02PM 57.1094 66.2138 97° East 539 620 39,000  Level FlightAware ADS-B (USTR / TJM)
06:02PM 57.1067 66.2538 97° East 539 620 39,000  Level FlightAware ADS-B (USTR / TJM)
06:02PM 57.0970 66.3913 97° East 538 619 39,000  Level FlightAware ADS-B (USTR / TJM)
06:03PM 57.0876 66.5222 97° East 537 618 39,000  Level FlightAware ADS-B (USTR / TJM)
06:03PM 57.0836 66.5772 98° East 537 618 39,000  Level FlightAware ADS-B (USTR / TJM)
06:03PM 57.0795 66.6350 97° East 537 618 39,000  Level FlightAware ADS-B (USTR / TJM)
06:04PM 57.0721 66.7342 98° East 539 620 39,000  Level FlightAware ADS-B (USTR / TJM)
06:04PM 57.0672 66.8012 97° East 539 620 39,000  Level FlightAware ADS-B (USTR / TJM)
06:04PM 57.0568 66.9388 97° East 540 621 39,000  Level FlightAware ADS-B (USTR / TJM)
06:04PM 57.0572 66.9343 98° East 540 621 39,000  Level FlightAware ADS-B (USTR / TJM)
06:05PM 57.0453 67.0762 99° East 539 620 39,000  Level FlightAware ADS-B (USTR / TJM)
06:05PM 57.0415 67.1204 99° East 539 620 39,000  Level FlightAware ADS-B (USTR / TJM)
06:05PM 57.0343 67.2014 99° East 539 620 39,000  Level FlightAware ADS-B (USTR / TJM)
06:06PM 57.0252 67.3037 99° East 538 619 39,000  Level FlightAware ADS-B (USTR / TJM)
06:06PM 57.0213 67.3477 99° East 536 617 39,000  Level FlightAware ADS-B (USTR / TJM)
06:06PM 57.0094 67.4812 99° East 537 618 39,000  Level FlightAware ADS-B (USTR / TJM)
06:07PM 56.9976 67.6131 99° East 538 619 39,000  Level FlightAware ADS-B (USTR / TJM)
06:07PM 56.9938 67.6552 99° East 538 619 39,000  Level FlightAware ADS-B (USTR / TJM)
06:07PM 56.9854 67.7476 99° East 537 618 39,000  Level FlightAware ADS-B (USTR / TJM)
06:08PM 56.9789 67.8182 100° East 536 617 39,000  Level FlightAware ADS-B (USTR / TJM)
06:08PM 56.9731 67.8816 99° East 536 617 39,000  Level FlightAware ADS-B (USTR / TJM)
06:08PM 56.9607 68.0163 99° East 534 615 39,000  Level FlightAware ADS-B (USTR / TJM)
06:08PM 56.9608 68.0146 100° East 535 616 39,000  Level FlightAware ADS-B (USTR / TJM)
06:09PM 56.9481 68.1501 99° East 530 610 39,000  Level FlightAware ADS-B (USTR / TJM)
06:09PM 56.9438 68.1951 100° East 531 611 39,000  Level FlightAware ADS-B (USTR / TJM)
06:09PM 56.9356 68.2816 99° East 531 611 39,000  Level FlightAware ADS-B (USTR / TJM)
06:10PM 56.9275 68.3654 100° East 532 612 39,000  Level FlightAware ADS-B (USTR / TJM)
06:10PM 56.9228 68.4140 99° East 531 611 39,000  Level FlightAware ADS-B (USTR / TJM)
06:10PM 56.9098 68.5482 100° East 530 610 39,000  Level FlightAware ADS-B (USTR / TJM)
06:11PM 56.8970 68.6772 100° East 528 608 39,000  Level FlightAware ADS-B (USTR / TJM)
06:11PM 56.8927 68.7210 100° East 529 609 39,000  Level FlightAware ADS-B (USTR / TJM)
06:11PM 56.8837 68.8106 100° East 529 609 39,000  Level FlightAware ADS-B (USTR / TJM)
06:12PM 56.8745 68.9032 100° East 530 610 39,000  Level FlightAware ADS-B (USTR / TJM)
06:12PM 56.8704 68.9428 100° East 529 609 39,000  Level FlightAware ADS-B (USTR / TJM)
06:12PM 56.8569 69.0761 100° East 529 609 39,000  Level FlightAware ADS-B (USTR / TJM)
06:12PM 56.8591 69.0550 100° East 530 610 39,000  Level FlightAware ADS-B (USTR / TJM)
06:13PM 56.8450 69.1911 100° East 529 609 39,000  Level FlightAware ADS-B (USTR / TJM)
06:13PM 56.8385 69.2534 100° East 530 610 39,000  Level FlightAware ADS-B (USTR / TJM)
06:13PM 56.8300 69.3350 100° East 530 610 39,000  Level FlightAware ADS-B (USTR / TJM)
06:13PM 56.8240 69.3920 100° East 530 610 39,000  Level FlightAware ADS-B (USTR / TJM)
06:14PM 56.8023 69.5967 100° East 529 609 39,000  Level FlightAware ADS-B (USTR / TJM)
06:14PM 56.8028 69.5924 101° East 530 610 39,000  Level FlightAware ADS-B (USTR / TJM)
06:14PM 56.8014 69.6055 100° East 529 609 39,000  Level FlightAware ADS-B (USTR / TJM)
06:17PM 56.6506 70.0248 123° Southeast  Level Estimated
06:18PM 56.5805 70.2172 123° Southeast  Level Estimated
06:19PM 56.5101 70.4089 124° Southeast  Level Estimated
06:20PM 56.4394 70.5999 124° Southeast  Level Estimated
06:21PM 56.3685 70.7902 124° Southeast  Level Estimated
06:22PM 56.2972 70.9798 124° Southeast  Level Estimated
06:23PM 56.2256 71.1686 124° Southeast  Level Estimated
06:24PM 56.1538 71.3568 124° Southeast  Level Estimated
06:25PM 56.0817 71.5442 125° Southeast  Level Estimated
06:26PM 56.0093 71.7310 125° Southeast  Level Estimated
06:27PM 55.9366 71.9170 125° Southeast  Level Estimated
06:28PM 55.8636 72.1024 125° Southeast  Level Estimated
06:29PM 55.7904 72.2870 125° Southeast  Level Estimated
06:30PM 55.7169 72.4710 125° Southeast  Level Estimated
06:31PM 55.6431 72.6542 125° Southeast  Level Estimated
06:32PM 55.5690 72.8368 126° Southeast  Level Estimated
06:33PM 55.4947 73.0187 126° Southeast  Level Estimated
06:34PM 55.4201 73.1999 126° Southeast  Level Estimated
06:35PM 55.3452 73.3804 126° Southeast  Level Estimated
06:36PM 55.2701 73.5602 126° Southeast  Level Estimated
06:37PM 55.1947 73.7394 126° Southeast  Level Estimated
06:38PM 55.1190 73.9179 127° Southeast  Level Estimated
06:39PM 55.0431 74.0957 127° Southeast  Level Estimated
06:40PM 54.9669 74.2728 127° Southeast  Level Estimated
06:41PM 54.8905 74.4492 127° Southeast  Level Estimated
06:42PM 54.8138 74.6250 127° Southeast  Level Estimated
06:43PM 54.7369 74.8002 127° Southeast  Level Estimated
06:44PM 54.6597 74.9746 127° Southeast  Level Estimated
06:45PM 54.5822 75.1484 128° Southeast  Level Estimated
06:46PM 54.5045 75.3215 128° Southeast  Level Estimated
06:47PM 54.4266 75.4940 128° Southeast  Level Estimated
06:48PM 54.3484 75.6658 128° Southeast  Level Estimated
06:49PM 54.2700 75.8370 128° Southeast  Level Estimated
06:50PM 54.1913 76.0075 128° Southeast  Level Estimated
06:51PM 54.1124 76.1773 128° Southeast  Level Estimated
06:52PM 54.0333 76.3466 128° Southeast  Level Estimated
06:53PM 53.9539 76.5151 129° Southeast  Level Estimated
06:54PM 53.8743 76.6831 129° Southeast  Level Estimated
06:55PM 53.7944 76.8503 129° Southeast  Level Estimated
06:56PM 53.7144 77.0170 129° Southeast  Level Estimated
06:57PM 53.6340 77.1830 129° Southeast  Level Estimated
06:58PM 53.5535 77.3484 129° Southeast  Level Estimated
06:59PM 53.4727 77.5132 129° Southeast  Level Estimated
07:00PM 53.3917 77.6773 130° Southeast  Level Estimated
07:01PM 53.3105 77.8408 130° Southeast  Level Estimated
07:02PM 53.2291 78.0037 130° Southeast  Level Estimated
07:03PM 53.1474 78.1660 130° Southeast  Level Estimated
07:04PM 53.0655 78.3276 130° Southeast  Level Estimated
07:05PM 52.9834 78.4886 130° Southeast  Level Estimated
07:06PM 52.9011 78.6491 130° Southeast  Level Estimated
07:07PM 52.8186 78.8089 130° Southeast  Level Estimated
07:08PM 52.7359 78.9681 131° Southeast  Level Estimated
07:09PM 52.6529 79.1267 131° Southeast  Level Estimated
07:10PM 52.5697 79.2847 131° Southeast  Level Estimated
07:11PM 52.4863 79.4421 131° Southeast  Level Estimated
07:12PM 52.4028 79.5989 131° Southeast  Level Estimated
07:13PM 52.3190 79.7551 131° Southeast  Level Estimated
07:14PM 52.2350 79.9108 131° Southeast  Level Estimated
07:15PM 52.1508 80.0658 131° Southeast  Level Estimated
07:16PM 52.0664 80.2202 132° Southeast  Level Estimated
07:17PM 51.9818 80.3741 132° Southeast  Level Estimated
07:18PM 51.8969 80.5274 132° Southeast  Level Estimated
07:19PM 51.8120 80.6801 132° Southeast  Level Estimated
07:20PM 51.7267 80.8322 132° Southeast  Level Estimated
07:21PM 51.6413 80.9838 132° Southeast  Level Estimated
07:22PM 51.5558 81.1348 132° Southeast  Level Estimated
07:23PM 51.4700 81.2852 132° Southeast  Level Estimated
07:24PM 51.3840 81.4350 133° Southeast  Level Estimated
07:25PM 51.2978 81.5843 133° Southeast  Level Estimated
07:26PM 51.2115 81.7330 133° Southeast  Level Estimated
07:27PM 51.1249 81.8812 133° Southeast  Level Estimated
07:28PM 51.0382 82.0288 133° Southeast  Level Estimated
07:29PM 50.9513 82.1759 133° Southeast  Level Estimated
07:30PM 50.8642 82.3224 133° Southeast  Level Estimated
07:31PM 50.7769 82.4684 133° Southeast  Level Estimated
07:32PM 50.6894 82.6138 133° Southeast  Level Estimated
07:33PM 50.6018 82.7587 134° Southeast  Level Estimated
07:34PM 50.5140 82.9030 134° Southeast  Level Estimated
07:35PM 50.4260 83.0469 134° Southeast  Level Estimated
07:36PM 50.3378 83.1901 134° Southeast  Level Estimated
07:37PM 50.2495 83.3329 134° Southeast  Level Estimated
07:38PM 50.1609 83.4751 134° Southeast  Level Estimated
07:39PM 50.0722 83.6168 134° Southeast  Level Estimated
07:40PM 49.9834 83.7579 134° Southeast  Level Estimated
07:41PM 49.8943 83.8986 134° Southeast  Level Estimated
07:42PM 49.8051 84.0387 135° Southeast  Level Estimated
07:43PM 49.7157 84.1783 135° Southeast  Level Estimated
07:44PM 49.6262 84.3174 135° Southeast  Level Estimated
07:45PM 49.5365 84.4560 135° Southeast  Level Estimated
07:46PM 49.4466 84.5941 135° Southeast  Level Estimated
07:47PM 49.3566 84.7316 135° Southeast  Level Estimated
07:48PM 49.2664 84.8687 135° Southeast  Level Estimated
07:49PM 49.1760 85.0053 135° Southeast  Level Estimated
07:50PM 49.0855 85.1413 135° Southeast  Level Estimated
07:51PM 48.9948 85.2769 136° Southeast  Level Estimated
07:52PM 48.9039 85.4120 136° Southeast  Level Estimated
07:53PM 48.8129 85.5466 136° Southeast  Level Estimated
07:54PM 48.7218 85.6807 136° Southeast  Level Estimated
07:55PM 48.6305 85.8143 136° Southeast  Level Estimated
07:56PM 48.5390 85.9474 136° Southeast  Level Estimated
07:57PM 48.4474 86.0801 136° Southeast  Level Estimated
07:58PM 48.3556 86.2122 136° Southeast  Level Estimated
07:59PM 48.2637 86.3439 136° Southeast  Level Estimated
08:00PM 48.1716 86.4752 136° Southeast  Level Estimated
08:01PM 48.0794 86.6059 137° Southeast  Level Estimated
08:02PM 47.9870 86.7362 137° Southeast  Level Estimated
08:03PM 47.8945 86.8660 137° Southeast  Level Estimated
08:04PM 47.8019 86.9954 137° Southeast  Level Estimated
08:05PM 47.7091 87.1243 137° Southeast  Level Estimated
08:06PM 47.6161 87.2527 137° Southeast  Level Estimated
08:07PM 47.5230 87.3807 137° Southeast  Level Estimated
08:08PM 47.4298 87.5082 137° Southeast  Level Estimated
08:09PM 47.3364 87.6353 137° Southeast  Level Estimated
08:10PM 47.2429 87.7619 137° Southeast  Level Estimated
08:11PM 47.1492 87.8881 137° Southeast  Level Estimated
08:12PM 47.0555 88.0138 138° Southeast  Level Estimated
08:13PM 46.9615 88.1391 138° Southeast  Level Estimated
08:14PM 46.8675 88.2640 138° Southeast  Level Estimated
08:15PM 46.7733 88.3884 138° Southeast  Level Estimated
08:16PM 46.6789 88.5124 138° Southeast  Level Estimated
08:17PM 46.5844 88.6359 138° Southeast  Level Estimated
08:18PM 46.4898 88.7590 138° Southeast  Level Estimated
08:19PM 46.3951 88.8817 138° Southeast  Level Estimated
08:20PM 46.3003 89.0040 138° Southeast  Level Estimated
08:21PM 46.2053 89.1258 138° Southeast  Level Estimated
08:22PM 46.1101 89.2472 138° Southeast  Level Estimated
08:23PM 46.0149 89.3682 139° Southeast  Level Estimated
08:24PM 45.9195 89.4888 139° Southeast  Level Estimated
08:25PM 45.8240 89.6090 139° Southeast  Level Estimated
08:26PM 45.7284 89.7288 139° Southeast  Level Estimated
08:27PM 45.6326 89.8481 139° Southeast  Level Estimated
08:28PM 45.5368 89.9670 139° Southeast  Level Estimated
08:29PM 45.4408 90.0856 139° Southeast  Level Estimated
08:30PM 45.3446 90.2037 139° Southeast  Level Estimated
08:31PM 45.2484 90.3215 139° Southeast  Level Estimated
08:32PM 45.1520 90.4388 139° Southeast  Level Estimated
08:33PM 45.0555 90.5557 139° Southeast  Level Estimated
08:34PM 44.9589 90.6723 139° Southeast  Level Estimated
08:35PM 44.8622 90.7884 140° Southeast  Level Estimated
08:36PM 44.7654 90.9042 140° Southeast  Level Estimated
08:37PM 44.6684 91.0196 140° Southeast  Level Estimated
08:38PM 44.5714 91.1346 140° Southeast  Level Estimated
08:39PM 44.4742 91.2492 140° Southeast  Level Estimated
08:40PM 44.3769 91.3634 140° Southeast  Level Estimated
08:41PM 44.2794 91.4772 140° Southeast  Level Estimated
08:42PM 44.1819 91.5907 140° Southeast  Level Estimated
08:43PM 44.0843 91.7038 140° Southeast  Level Estimated
08:44PM 43.9865 91.8165 140° Southeast  Level Estimated
08:45PM 43.8887 91.9289 140° Southeast  Level Estimated
08:46PM 43.7907 92.0409 140° Southeast  Level Estimated
08:47PM 43.6926 92.1525 141° Southeast  Level Estimated
08:48PM 43.5944 92.2637 141° Southeast  Level Estimated
08:49PM 43.4961 92.3746 141° Southeast  Level Estimated
08:50PM 43.3977 92.4851 141° Southeast  Level Estimated
08:51PM 43.2992 92.5953 141° Southeast  Level Estimated
08:52PM 43.2006 92.7051 141° Southeast  Level Estimated
08:53PM 43.1019 92.8146 141° Southeast  Level Estimated
08:54PM 43.0031 92.9237 141° Southeast  Level Estimated
08:55PM 42.9042 93.0324 141° Southeast  Level Estimated
08:56PM 42.8051 93.1408 141° Southeast  Level Estimated
08:57PM 42.7060 93.2489 141° Southeast  Level Estimated
08:58PM 42.6068 93.3566 141° Southeast  Level Estimated
08:59PM 42.5074 93.4640 141° Southeast  Level Estimated
09:00PM 42.4080 93.5710 142° Southeast  Level Estimated
09:01PM 42.3085 93.6777 142° Southeast  Level Estimated
09:02PM 42.2089 93.7840 142° Southeast  Level Estimated
09:03PM 42.1091 93.8901 142° Southeast  Level Estimated
09:04PM 42.0093 93.9958 142° Southeast  Level Estimated
09:05PM 41.9094 94.1011 142° Southeast  Level Estimated
09:06PM 41.8094 94.2061 142° Southeast  Level Estimated
09:07PM 41.7093 94.3108 142° Southeast  Level Estimated
09:08PM 41.6090 94.4152 142° Southeast  Level Estimated
09:09PM 41.5087 94.5192 142° Southeast  Level Estimated
09:10PM 41.4084 94.6230 142° Southeast  Level Estimated
09:11PM 41.3079 94.7264 142° Southeast  Level Estimated
09:12PM 41.2073 94.8295 142° Southeast  Level Estimated
09:13PM 41.1066 94.9322 142° Southeast  Level Estimated
09:14PM 41.0059 95.0347 142° Southeast  Level Estimated
09:15PM 40.9050 95.1368 143° Southeast  Level Estimated
09:16PM 40.8041 95.2387 143° Southeast  Level Estimated
09:17PM 40.7030 95.3402 143° Southeast  Level Estimated
09:18PM 40.6019 95.4414 143° Southeast  Level Estimated
09:19PM 40.5007 95.5423 143° Southeast  Level Estimated
09:20PM 40.3994 95.6429 143° Southeast  Level Estimated
09:21PM 40.2980 95.7432 143° Southeast  Level Estimated
09:22PM 40.1965 95.8432 143° Southeast  Level Estimated
09:23PM 40.0950 95.9429 143° Southeast  Level Estimated
09:24PM 39.9934 96.0423 143° Southeast  Level Estimated
09:25PM 39.8916 96.1414 143° Southeast  Level Estimated
09:26PM 39.7898 96.2403 143° Southeast  Level Estimated
09:27PM 39.6879 96.3388 143° Southeast  Level Estimated
09:28PM 39.5859 96.4370 143° Southeast  Level Estimated
09:29PM 39.4839 96.5350 143° Southeast  Level Estimated
09:30PM 39.3817 96.6326 144° Southeast  Level Estimated
09:31PM 39.2795 96.7300 144° Southeast  Level Estimated
09:32PM 39.1772 96.8271 144° Southeast  Level Estimated
09:33PM 39.0748 96.9239 144° Southeast  Level Estimated
09:34PM 38.9724 97.0204 144° Southeast  Level Estimated
09:35PM 38.8698 97.1167 144° Southeast  Level Estimated
09:36PM 38.7672 97.2126 144° Southeast  Level Estimated
09:37PM 38.6645 97.3083 144° Southeast  Level Estimated
09:38PM 38.5617 97.4037 144° Southeast  Level Estimated
09:39PM 38.4589 97.4989 144° Southeast  Level Estimated
09:40PM 38.3560 97.5938 144° Southeast  Level Estimated
09:41PM 38.2529 97.6884 144° Southeast  Level Estimated
09:42PM 38.1499 97.7827 144° Southeast  Level Estimated
09:43PM 38.0467 97.8768 144° Southeast  Level Estimated
09:44PM 37.9435 97.9706 144° Southeast  Level Estimated
09:45PM 37.8402 98.0641 144° Southeast  Level Estimated
09:46PM 37.7368 98.1574 144° Southeast  Level Estimated
09:47PM 37.6333 98.2504 145° Southeast  Level Estimated
09:48PM 37.5298 98.3432 145° Southeast  Level Estimated
09:49PM 37.4262 98.4357 145° Southeast  Level Estimated
09:50PM 37.3225 98.5279 145° Southeast  Level Estimated
09:51PM 37.2188 98.6199 145° Southeast  Level Estimated
09:52PM 37.1150 98.7117 145° Southeast  Level Estimated
09:53PM 37.0111 98.8032 145° Southeast  Level Estimated
09:54PM 36.9072 98.8944 145° Southeast  Level Estimated
09:55PM 36.8031 98.9854 145° Southeast  Level Estimated
09:56PM 36.6990 99.0761 145° Southeast  Level Estimated
09:57PM 36.5949 99.1666 145° Southeast  Level Estimated
09:58PM 36.4907 99.2569 145° Southeast  Level Estimated
09:59PM 36.3863 99.3469 145° Southeast  Level Estimated
10:00PM 36.2820 99.4367 145° Southeast  Level Estimated
10:01PM 36.1776 99.5262 145° Southeast  Level Estimated
10:02PM 36.0731 99.6155 145° Southeast  Level Estimated
10:03PM 35.9685 99.7046 145° Southeast  Level Estimated
10:04PM 35.8639 99.7934 145° Southeast  Level Estimated
10:05PM 35.7592 99.8820 146° Southeast  Level Estimated
10:06PM 35.6544 99.9703 146° Southeast  Level Estimated
10:07PM 35.5496 100.0584 146° Southeast  Level Estimated
10:08PM 35.4447 100.1463 146° Southeast  Level Estimated
10:09PM 35.3397 100.2340 146° Southeast  Level Estimated
10:10PM 35.2347 100.3214 146° Southeast  Level Estimated
10:11PM 35.1297 100.4087 146° Southeast  Level Estimated
10:12PM 35.0245 100.4956 146° Southeast  Level Estimated
10:13PM 34.9193 100.5824 146° Southeast  Level Estimated
10:14PM 34.8140 100.6689 146° Southeast  Level Estimated
10:15PM 34.7087 100.7553 146° Southeast  Level Estimated
10:16PM 34.6033 100.8414 146° Southeast  Level Estimated
10:17PM 34.4979 100.9272 146° Southeast  Level Estimated
10:18PM 34.3924 101.0129 146° Southeast  Level Estimated
10:19PM 34.2868 101.0984 146° Southeast  Level Estimated
10:20PM 34.1812 101.1836 146° Southeast  Level Estimated
10:21PM 34.0755 101.2686 146° Southeast  Level Estimated
10:22PM 33.9698 101.3534 146° Southeast  Level Estimated
10:23PM 33.8640 101.4380 146° Southeast  Level Estimated
10:24PM 33.7581 101.5224 146° Southeast  Level Estimated
10:25PM 33.6522 101.6066 147° Southeast  Level Estimated
10:26PM 33.5462 101.6906 147° Southeast  Level Estimated
10:27PM 33.4402 101.7743 147° Southeast  Level Estimated
10:28PM 33.3341 101.8579 147° Southeast  Level Estimated
10:29PM 33.2280 101.9412 147° Southeast  Level Estimated
10:30PM 33.1218 102.0244 147° Southeast  Level Estimated
10:31PM 33.0155 102.1074 147° Southeast  Level Estimated
10:32PM 32.9092 102.1901 147° Southeast  Level Estimated
10:33PM 32.8029 102.2727 147° Southeast  Level Estimated
10:34PM 32.6965 102.3550 147° Southeast  Level Estimated
10:35PM 32.5900 102.4372 147° Southeast  Level Estimated
10:36PM 32.4835 102.5192 147° Southeast  Level Estimated
10:37PM 32.3769 102.6009 147° Southeast  Level Estimated
10:38PM 32.2703 102.6825 147° Southeast  Level Estimated
10:39PM 32.1636 102.7639 147° Southeast  Level Estimated
10:40PM 32.0569 102.8451 147° Southeast  Level Estimated
10:41PM 31.9501 102.9261 147° Southeast  Level Estimated
10:42PM 31.8433 103.0069 147° Southeast  Level Estimated
10:43PM 31.7364 103.0876 147° Southeast  Level Estimated
10:44PM 31.6294 103.1680 147° Southeast  Level Estimated
10:45PM 31.5225 103.2483 147° Southeast  Level Estimated
10:46PM 31.4154 103.3284 147° Southeast  Level Estimated
10:47PM 31.3083 103.4083 147° Southeast  Level Estimated
10:48PM 31.2012 103.4880 148° Southeast  Level Estimated
10:49PM 31.0940 103.5675 148° Southeast  Level Estimated
10:50PM 30.9868 103.6469 148° Southeast  Level Estimated
10:51PM 30.8795 103.7261 148° Southeast  Level Estimated
10:52PM 30.7722 103.8051 148° Southeast  Level Estimated
10:53PM 30.6648 103.8839 148° Southeast  Level Estimated
10:54PM 30.5785 103.9471 148° Southeast  Level Estimated
10:55PM 30.5785 103.9471 North  Level Estimated
10:56PM 30.5785 103.9471 North  Level Estimated
10:57PM 30.5785 103.9471 North  Level Estimated
10:58PM 30.5785 103.9471 North  Level Estimated
10:59PM 30.5785 103.9471 North  Level Estimated
11:00PM 30.5785 103.9471 North  Level Estimated
11:01PM 30.5785 103.9471 North  Level Estimated
11:02PM 30.5785 103.9471 North  Level Estimated
11:03PM 30.5785 103.9471 North  Level Estimated
11:04PM 30.5785 103.9471 North  Level Estimated
11:05PM 30.5785 103.9471 North  Level Estimated
11:06PM 30.5785 103.9471 North  Level Estimated